createdAt,value
2023-02-24T00:00:41.205Z,998.11
2023-02-24T00:01:41.129Z,998.10
2023-02-24T00:02:41.160Z,998.12
2023-02-24T00:03:41.172Z,998.09
2023-02-24T00:04:41.112Z,998.05
2023-02-24T00:05:41.126Z,998.09
2023-02-24T00:06:41.073Z,998.04
2023-02-24T00:07:41.078Z,998.03
2023-02-24T00:08:41.079Z,998.08
2023-02-24T00:09:41.102Z,998.10
2023-02-24T00:10:41.018Z,998.01
2023-02-24T00:11:41.018Z,998.01
2023-02-24T00:12:41.010Z,998.02
2023-02-24T00:13:41.011Z,998.06
2023-02-24T00:14:42.007Z,998.08
2023-02-24T00:15:42.003Z,998.07
2023-02-24T00:16:42.098Z,998.03
2023-02-24T00:17:40.940Z,997.98
2023-02-24T00:18:41.006Z,998.04
2023-02-24T00:19:40.925Z,998.06
2023-02-24T00:20:41.930Z,998.01
2023-02-24T00:21:40.907Z,998.00
2023-02-24T00:22:41.069Z,998.05
2023-02-24T00:23:40.891Z,998.09
2023-02-24T00:24:40.895Z,998.02
2023-02-24T00:25:40.895Z,998.02
2023-02-24T00:26:40.849Z,998.03
2023-02-24T00:27:40.866Z,998.07
2023-02-24T00:28:41.861Z,998.09
2023-02-24T00:29:40.895Z,998.08
2023-02-24T00:30:41.000Z,998.10
2023-02-24T00:31:41.070Z,998.09
2023-02-24T00:32:40.928Z,998.04
2023-02-24T00:33:41.770Z,998.00
2023-02-24T00:34:41.810Z,998.00
2023-02-24T00:35:40.790Z,997.98
2023-02-24T00:36:40.745Z,998.01
2023-02-24T00:37:40.729Z,998.03
2023-02-24T00:38:40.771Z,998.00
2023-02-24T00:39:40.757Z,997.98
2023-02-24T00:40:40.712Z,998.00
2023-02-24T00:41:41.704Z,998.00
2023-02-24T00:42:40.684Z,997.99
2023-02-24T00:43:40.676Z,998.02
2023-02-24T00:44:40.698Z,998.00
2023-02-24T00:45:40.714Z,998.04
2023-02-24T00:46:41.744Z,998.01
2023-02-24T00:47:41.750Z,998.05
2023-02-24T00:48:40.623Z,998.02
2023-02-24T00:49:40.610Z,998.03
2023-02-24T00:50:40.625Z,997.94
2023-02-24T00:51:40.584Z,998.02
2023-02-24T00:52:40.576Z,998.00
2023-02-24T00:53:40.573Z,997.93
2023-02-24T00:54:41.591Z,997.97
2023-02-24T00:55:40.640Z,997.93
2023-02-24T00:56:40.542Z,997.93
2023-02-24T00:57:40.611Z,997.91
2023-02-24T00:58:41.763Z,997.93
2023-02-24T00:59:41.542Z,997.97
2023-02-24T01:00:40.494Z,997.92
2023-02-24T01:01:40.530Z,997.92
2023-02-24T01:02:40.478Z,997.94
2023-02-24T01:03:40.540Z,997.91
2023-02-24T01:04:40.434Z,997.90
2023-02-24T01:05:40.424Z,997.93
2023-02-24T01:06:40.439Z,997.86
2023-02-24T01:07:40.437Z,997.89
2023-02-24T01:08:40.414Z,997.93
2023-02-24T01:09:40.373Z,997.84
2023-02-24T01:10:40.376Z,997.87
2023-02-24T01:11:40.413Z,997.81
2023-02-24T01:12:41.401Z,997.84
2023-02-24T01:13:41.332Z,997.75
2023-02-24T01:14:40.317Z,997.77
2023-02-24T01:15:40.483Z,997.76
2023-02-24T01:16:41.348Z,997.82
2023-02-24T01:17:40.325Z,997.79
2023-02-24T01:18:40.363Z,997.81
2023-02-24T01:19:40.312Z,997.78
2023-02-24T01:20:40.263Z,997.79
2023-02-24T01:21:40.309Z,997.73
2023-02-24T01:22:40.253Z,997.72
2023-02-24T01:23:40.247Z,997.67
2023-02-24T01:24:40.291Z,997.71
2023-02-24T01:25:40.555Z,997.70
2023-02-24T01:26:40.192Z,997.75
2023-02-24T01:27:41.171Z,997.71
2023-02-24T01:28:40.192Z,997.69
2023-02-24T01:29:40.229Z,997.68
2023-02-24T01:30:40.163Z,997.70
2023-02-24T01:31:40.266Z,997.69
2023-02-24T01:32:40.316Z,997.69
2023-02-24T01:33:40.132Z,997.69
2023-02-24T01:34:41.163Z,997.64
2023-02-24T01:35:40.132Z,997.65
2023-02-24T01:36:40.103Z,997.60
2023-02-24T01:37:41.124Z,997.57
2023-02-24T01:38:40.072Z,997.55
2023-02-24T01:39:40.082Z,997.60
2023-02-24T01:40:40.068Z,997.60
2023-02-24T01:41:40.076Z,997.46
2023-02-24T01:42:40.054Z,997.44
2023-02-24T01:43:40.004Z,997.49
2023-02-24T01:44:39.989Z,997.50
2023-02-24T01:45:39.978Z,997.50
2023-02-24T01:46:40.143Z,997.48
2023-02-24T01:47:39.993Z,997.44
2023-02-24T01:48:40.009Z,997.47
2023-02-24T01:49:39.946Z,997.47
2023-02-24T01:50:39.994Z,997.49
2023-02-24T01:51:39.972Z,997.42
2023-02-24T01:52:39.906Z,997.41
2023-02-24T01:53:39.940Z,997.37
2023-02-24T01:54:39.950Z,997.42
2023-02-24T01:55:39.880Z,997.37
2023-02-24T01:56:40.965Z,997.40
2023-02-24T01:57:39.868Z,997.40
2023-02-24T01:58:39.848Z,997.35
2023-02-24T01:59:39.871Z,997.38
2023-02-24T02:00:39.925Z,997.33
2023-02-24T02:01:39.898Z,997.31
2023-02-24T02:02:39.916Z,997.30
2023-02-24T02:03:40.865Z,997.28
2023-02-24T02:04:40.806Z,997.28
2023-02-24T02:05:39.799Z,997.29
2023-02-24T02:06:39.758Z,997.26
2023-02-24T02:07:39.822Z,997.23
2023-02-24T02:08:40.766Z,997.24
2023-02-24T02:09:40.767Z,997.27
2023-02-24T02:10:39.718Z,997.26
2023-02-24T02:11:39.738Z,997.30
2023-02-24T02:12:39.700Z,997.46
2023-02-24T02:13:39.701Z,997.37
2023-02-24T02:14:39.664Z,997.37
2023-02-24T02:15:39.693Z,997.40
2023-02-24T02:16:40.668Z,997.43
2023-02-24T02:17:39.707Z,997.41
2023-02-24T02:18:39.634Z,997.42
2023-02-24T02:19:39.702Z,997.41
2023-02-24T02:20:39.627Z,997.39
2023-02-24T02:21:39.737Z,997.41
2023-02-24T02:22:39.835Z,997.44
2023-02-24T02:23:39.617Z,997.42
2023-02-24T02:24:39.566Z,997.37
2023-02-24T02:25:39.555Z,997.45
2023-02-24T02:26:39.559Z,997.40
2023-02-24T02:27:39.541Z,997.49
2023-02-24T02:28:39.544Z,997.46
2023-02-24T02:29:39.541Z,997.42
2023-02-24T02:30:39.560Z,997.39
2023-02-24T02:31:39.738Z,997.43
2023-02-24T02:32:39.676Z,997.38
2023-02-24T02:33:39.495Z,997.44
2023-02-24T02:34:39.475Z,997.44
2023-02-24T02:35:40.493Z,997.43
2023-02-24T02:36:39.494Z,997.40
2023-02-24T02:37:41.220Z,997.40
2023-02-24T02:38:39.435Z,997.35
2023-02-24T02:39:39.459Z,997.38
2023-02-24T02:40:39.459Z,997.43
2023-02-24T02:41:39.367Z,997.37
2023-02-24T02:42:40.382Z,997.47
2023-02-24T02:43:39.383Z,997.43
2023-02-24T02:44:39.371Z,997.41
2023-02-24T02:45:39.415Z,997.46
2023-02-24T02:46:39.501Z,997.38
2023-02-24T02:47:39.312Z,997.38
2023-02-24T02:48:39.302Z,997.43
2023-02-24T02:49:39.318Z,997.36
2023-02-24T02:50:39.313Z,997.39
2023-02-24T02:51:39.305Z,997.38
2023-02-24T02:52:39.309Z,997.36
2023-02-24T02:53:39.291Z,997.34
2023-02-24T02:54:39.229Z,997.40
2023-02-24T02:55:39.246Z,997.32
2023-02-24T02:56:39.233Z,997.36
2023-02-24T02:57:39.204Z,997.39
2023-02-24T02:58:39.209Z,997.35
2023-02-24T02:59:39.177Z,997.36
2023-02-24T03:00:39.263Z,997.36
2023-02-24T03:01:39.162Z,997.40
2023-02-24T03:02:39.129Z,997.35
2023-02-24T03:03:39.138Z,997.24
2023-02-24T03:04:39.115Z,997.29
2023-02-24T03:05:39.133Z,997.27
2023-02-24T03:06:39.195Z,997.20
2023-02-24T03:07:39.113Z,997.19
2023-02-24T03:08:39.091Z,997.23
2023-02-24T03:09:39.080Z,997.22
2023-02-24T03:10:39.073Z,997.20
2023-02-24T03:11:40.072Z,997.19
2023-02-24T03:12:39.029Z,997.11
2023-02-24T03:13:39.049Z,997.16
2023-02-24T03:14:39.021Z,997.11
2023-02-24T03:15:38.998Z,997.07
2023-02-24T03:16:39.033Z,997.05
2023-02-24T03:17:39.995Z,997.08
2023-02-24T03:18:38.958Z,997.04
2023-02-24T03:19:38.988Z,997.06
2023-02-24T03:20:38.966Z,997.08
2023-02-24T03:21:38.964Z,997.06
2023-02-24T03:22:38.949Z,997.03
2023-02-24T03:23:39.032Z,997.03
2023-02-24T03:24:46.556Z,997.05
2023-02-24T03:25:38.905Z,997.03
2023-02-24T03:26:39.874Z,997.05
2023-02-24T03:27:38.886Z,997.02
2023-02-24T03:28:38.881Z,996.96
2023-02-24T03:29:38.830Z,996.95
2023-02-24T03:30:38.918Z,996.99
2023-02-24T03:31:38.917Z,996.98
2023-02-24T03:32:38.993Z,997.01
2023-02-24T03:33:38.812Z,996.99
2023-02-24T03:34:38.787Z,996.96
2023-02-24T03:35:38.774Z,996.96
2023-02-24T03:36:39.760Z,996.94
2023-02-24T03:37:38.785Z,996.91
2023-02-24T03:38:38.754Z,996.89
2023-02-24T03:39:38.767Z,996.82
2023-02-24T03:40:38.711Z,996.92
2023-02-24T03:41:38.722Z,996.82
2023-02-24T03:42:38.704Z,996.83
2023-02-24T03:43:38.700Z,996.85
2023-02-24T03:44:38.692Z,996.84
2023-02-24T03:45:39.758Z,996.85
2023-02-24T03:46:38.655Z,996.86
2023-02-24T03:47:38.669Z,996.89
2023-02-24T03:48:38.621Z,996.95
2023-02-24T03:49:38.635Z,996.89
2023-02-24T03:50:39.615Z,996.92
2023-02-24T03:51:39.615Z,996.83
2023-02-24T03:52:38.592Z,996.82
2023-02-24T03:53:38.586Z,996.83
2023-02-24T03:54:38.558Z,996.86
2023-02-24T03:55:39.589Z,996.83
2023-02-24T03:56:38.569Z,996.80
2023-02-24T03:57:38.528Z,996.81
2023-02-24T03:58:39.547Z,996.78
2023-02-24T03:59:39.527Z,996.79
2023-02-24T04:00:38.545Z,996.82
2023-02-24T04:01:38.502Z,996.80
2023-02-24T04:02:38.509Z,996.80
2023-02-24T04:03:38.473Z,996.79
2023-02-24T04:04:38.454Z,996.82
2023-02-24T04:05:38.462Z,996.80
2023-02-24T04:06:38.445Z,996.76
2023-02-24T04:07:39.479Z,996.72
2023-02-24T04:08:38.399Z,996.74
2023-02-24T04:09:38.418Z,996.75
2023-02-24T04:10:38.381Z,996.78
2023-02-24T04:11:38.393Z,996.70
2023-02-24T04:12:38.408Z,996.76
2023-02-24T04:13:38.372Z,996.71
2023-02-24T04:14:38.345Z,996.75
2023-02-24T04:15:38.402Z,996.71
2023-02-24T04:16:38.338Z,996.71
2023-02-24T04:17:38.345Z,996.74
2023-02-24T04:18:40.172Z,996.71
2023-02-24T04:19:38.346Z,996.73
2023-02-24T04:20:38.309Z,996.71
2023-02-24T04:21:39.263Z,996.67
2023-02-24T04:22:38.258Z,996.65
2023-02-24T04:23:38.270Z,996.68
2023-02-24T04:24:38.247Z,996.58
2023-02-24T04:25:38.274Z,996.58
2023-02-24T04:26:38.213Z,996.59
2023-02-24T04:27:38.190Z,996.52
2023-02-24T04:28:38.184Z,996.60
2023-02-24T04:29:38.206Z,996.54
2023-02-24T04:30:38.213Z,996.52
2023-02-24T04:31:38.413Z,996.53
2023-02-24T04:32:38.304Z,996.46
2023-02-24T04:33:38.125Z,996.49
2023-02-24T04:34:38.144Z,996.43
2023-02-24T04:35:38.137Z,996.47
2023-02-24T04:36:38.107Z,996.47
2023-02-24T04:37:38.083Z,996.42
2023-02-24T04:38:38.087Z,996.42
2023-02-24T04:39:39.078Z,996.51
2023-02-24T04:40:38.071Z,996.51
2023-02-24T04:41:38.048Z,996.57
2023-02-24T04:42:38.066Z,996.53
2023-02-24T04:43:38.015Z,996.58
2023-02-24T04:44:38.014Z,996.52
2023-02-24T04:45:39.104Z,996.47
2023-02-24T04:46:39.019Z,996.53
2023-02-24T04:47:37.995Z,996.47
2023-02-24T04:48:37.979Z,996.45
2023-02-24T04:49:37.986Z,996.46
2023-02-24T04:50:38.983Z,996.38
2023-02-24T04:51:37.952Z,996.33
2023-02-24T04:52:37.929Z,996.34
2023-02-24T04:53:37.923Z,996.32
2023-02-24T04:54:38.910Z,996.25
2023-02-24T04:55:37.980Z,996.33
2023-02-24T04:56:37.927Z,996.27
2023-02-24T04:57:37.881Z,996.22
2023-02-24T04:58:37.866Z,996.26
2023-02-24T04:59:37.862Z,996.20
2023-02-24T05:00:37.915Z,996.20
2023-02-24T05:01:37.890Z,996.07
2023-02-24T05:02:38.818Z,996.03
2023-02-24T05:03:37.858Z,996.00
2023-02-24T05:04:37.855Z,995.94
2023-02-24T05:05:38.826Z,996.01
2023-02-24T05:06:38.827Z,996.00
2023-02-24T05:07:38.748Z,995.94
2023-02-24T05:08:38.779Z,995.99
2023-02-24T05:09:37.786Z,996.04
2023-02-24T05:10:37.726Z,996.00
2023-02-24T05:11:37.759Z,996.02
2023-02-24T05:12:37.707Z,996.01
2023-02-24T05:13:37.731Z,996.01
2023-02-24T05:14:37.694Z,996.03
2023-02-24T05:15:38.672Z,995.98
2023-02-24T05:16:37.750Z,996.11
2023-02-24T05:17:37.652Z,996.04
2023-02-24T05:18:37.648Z,996.10
2023-02-24T05:19:37.644Z,996.14
2023-02-24T05:20:37.656Z,996.13
2023-02-24T05:21:38.622Z,996.07
2023-02-24T05:22:38.615Z,996.05
2023-02-24T05:23:37.759Z,996.05
2023-02-24T05:24:37.607Z,996.12
2023-02-24T05:25:38.560Z,996.05
2023-02-24T05:26:38.607Z,996.08
2023-02-24T05:27:37.528Z,996.07
2023-02-24T05:28:37.526Z,996.05
2023-02-24T05:29:37.564Z,996.03
2023-02-24T05:30:37.587Z,996.03
2023-02-24T05:31:37.618Z,996.07
2023-02-24T05:32:38.608Z,996.03
2023-02-24T05:33:37.482Z,996.07
2023-02-24T05:34:37.588Z,996.01
2023-02-24T05:35:37.472Z,996.06
2023-02-24T05:36:37.429Z,996.02
2023-02-24T05:37:37.429Z,996.03
2023-02-24T05:38:37.426Z,996.00
2023-02-24T05:39:37.411Z,995.95
2023-02-24T05:40:38.484Z,995.94
2023-02-24T05:41:37.385Z,995.99
2023-02-24T05:42:37.385Z,995.90
2023-02-24T05:43:38.354Z,995.90
2023-02-24T05:44:37.375Z,995.92
2023-02-24T05:45:37.344Z,995.89
2023-02-24T05:46:37.378Z,995.86
2023-02-24T05:47:38.375Z,995.89
2023-02-24T05:48:37.292Z,995.84
2023-02-24T05:49:37.292Z,995.81
2023-02-24T05:50:37.281Z,995.83
2023-02-24T05:51:38.321Z,995.82
2023-02-24T05:52:37.290Z,995.81
2023-02-24T05:53:38.260Z,995.80
2023-02-24T05:54:37.251Z,995.78
2023-02-24T05:55:37.225Z,995.80
2023-02-24T05:56:37.224Z,995.78
2023-02-24T05:57:37.230Z,995.79
2023-02-24T05:58:37.182Z,995.79
2023-02-24T05:59:37.186Z,995.81
2023-02-24T06:00:37.184Z,995.74
2023-02-24T06:01:37.187Z,995.76
2023-02-24T06:02:37.142Z,995.76
2023-02-24T06:03:37.157Z,995.76
2023-02-24T06:04:37.160Z,995.72
2023-02-24T06:05:37.120Z,995.78
2023-02-24T06:06:37.105Z,995.77
2023-02-24T06:07:38.117Z,995.78
2023-02-24T06:08:37.129Z,995.72
2023-02-24T06:09:37.073Z,995.69
2023-02-24T06:10:37.066Z,995.66
2023-02-24T06:11:37.068Z,995.69
2023-02-24T06:12:37.051Z,995.80
2023-02-24T06:13:37.045Z,995.70
2023-02-24T06:14:37.042Z,995.71
2023-02-24T06:15:37.032Z,995.67
2023-02-24T06:16:37.032Z,995.70
2023-02-24T06:17:36.989Z,995.69
2023-02-24T06:18:36.993Z,995.69
2023-02-24T06:19:36.965Z,995.61
2023-02-24T06:20:37.973Z,995.66
2023-02-24T06:21:36.952Z,995.65
2023-02-24T06:22:36.939Z,995.69
2023-02-24T06:23:36.930Z,995.62
2023-02-24T06:24:36.912Z,995.55
2023-02-24T06:25:36.892Z,995.54
2023-02-24T06:26:36.909Z,995.61
2023-02-24T06:27:36.887Z,995.54
2023-02-24T06:28:36.862Z,995.54
2023-02-24T06:29:36.849Z,995.53
2023-02-24T06:30:36.942Z,995.45
2023-02-24T06:31:37.995Z,995.48
2023-02-24T06:32:37.034Z,995.48
2023-02-24T06:33:36.803Z,995.58
2023-02-24T06:34:36.832Z,995.56
2023-02-24T06:35:36.783Z,995.51
2023-02-24T06:36:36.806Z,995.50
2023-02-24T06:37:37.782Z,995.48
2023-02-24T06:38:37.760Z,995.49
2023-02-24T06:39:37.124Z,995.43
2023-02-24T06:40:36.769Z,995.46
2023-02-24T06:41:36.728Z,995.41
2023-02-24T06:42:36.707Z,995.40
2023-02-24T06:43:36.723Z,995.39
2023-02-24T06:44:36.718Z,995.46
2023-02-24T06:45:36.717Z,995.41
2023-02-24T06:46:36.678Z,995.49
2023-02-24T06:47:37.665Z,995.42
2023-02-24T06:48:36.671Z,995.40
2023-02-24T06:49:36.637Z,995.41
2023-02-24T06:50:36.634Z,995.34
2023-02-24T06:51:36.633Z,995.34
2023-02-24T06:52:36.616Z,995.39
2023-02-24T06:53:36.601Z,995.40
2023-02-24T06:54:36.617Z,995.42
2023-02-24T06:55:36.597Z,995.39
2023-02-24T06:56:36.586Z,995.41
2023-02-24T06:57:37.544Z,995.40
2023-02-24T06:58:36.532Z,995.42
2023-02-24T06:59:36.545Z,995.45
2023-02-24T07:00:36.523Z,995.48
2023-02-24T07:01:36.560Z,995.46
2023-02-24T07:02:37.503Z,995.49
2023-02-24T07:03:36.474Z,995.47
2023-02-24T07:04:36.511Z,995.40
2023-02-24T07:05:36.493Z,995.51
2023-02-24T07:06:36.467Z,995.50
2023-02-24T07:07:36.453Z,995.43
2023-02-24T07:08:36.442Z,995.46
2023-02-24T07:09:36.425Z,995.48
2023-02-24T07:10:36.408Z,995.46
2023-02-24T07:11:36.440Z,995.44
2023-02-24T07:12:36.389Z,995.44
2023-02-24T07:13:36.395Z,995.45
2023-02-24T07:14:36.383Z,995.48
2023-02-24T07:15:36.358Z,995.39
2023-02-24T07:16:36.421Z,995.37
2023-02-24T07:17:36.380Z,995.48
2023-02-24T07:18:36.314Z,995.43
2023-02-24T07:19:36.329Z,995.41
2023-02-24T07:20:36.289Z,995.40
2023-02-24T07:21:36.291Z,995.45
2023-02-24T07:22:37.266Z,995.36
2023-02-24T07:23:36.293Z,995.49
2023-02-24T07:24:36.870Z,995.39
2023-02-24T07:25:36.261Z,995.38
2023-02-24T07:26:37.219Z,995.41
2023-02-24T07:27:36.229Z,995.39
2023-02-24T07:28:36.204Z,995.37
2023-02-24T07:29:36.258Z,995.37
2023-02-24T07:30:36.312Z,995.36
2023-02-24T07:31:36.325Z,995.31
2023-02-24T07:32:36.196Z,995.27
2023-02-24T07:33:36.147Z,995.21
2023-02-24T07:34:36.152Z,995.21
2023-02-24T07:35:36.170Z,995.22
2023-02-24T07:36:36.137Z,995.13
2023-02-24T07:37:36.123Z,995.12
2023-02-24T07:38:36.148Z,995.17
2023-02-24T07:39:36.078Z,995.09
2023-02-24T07:40:36.100Z,995.05
2023-02-24T07:41:36.075Z,995.10
2023-02-24T07:42:36.067Z,995.08
2023-02-24T07:43:36.090Z,995.14
2023-02-24T07:44:36.036Z,995.14
2023-02-24T07:45:36.122Z,995.09
2023-02-24T07:46:37.145Z,995.01
2023-02-24T07:47:36.025Z,995.02
2023-02-24T07:48:36.005Z,994.96
2023-02-24T07:49:35.976Z,994.95
2023-02-24T07:50:35.960Z,995.01
2023-02-24T07:51:36.950Z,994.95
2023-02-24T07:52:35.981Z,994.96
2023-02-24T07:53:35.939Z,994.97
2023-02-24T07:54:36.908Z,994.90
2023-02-24T07:55:35.955Z,994.91
2023-02-24T07:56:35.898Z,994.92
2023-02-24T07:57:35.908Z,994.84
2023-02-24T07:58:36.887Z,994.89
2023-02-24T07:59:35.881Z,994.84
2023-02-24T08:00:35.871Z,994.82
2023-02-24T08:01:35.871Z,994.77
2023-02-24T08:02:36.876Z,994.76
2023-02-24T08:03:35.830Z,994.75
2023-02-24T08:04:35.830Z,994.65
2023-02-24T08:05:36.835Z,994.66
2023-02-24T08:06:36.792Z,994.70
2023-02-24T08:07:35.813Z,994.67
2023-02-24T08:08:35.758Z,994.69
2023-02-24T08:09:36.775Z,994.60
2023-02-24T08:10:35.738Z,994.64
2023-02-24T08:11:35.830Z,994.54
2023-02-24T08:12:35.723Z,994.51
2023-02-24T08:13:35.753Z,994.46
2023-02-24T08:14:35.694Z,994.52
2023-02-24T08:15:35.833Z,994.49
2023-02-24T08:16:35.668Z,994.56
2023-02-24T08:17:35.681Z,994.53
2023-02-24T08:18:35.678Z,994.50
2023-02-24T08:19:35.687Z,994.41
2023-02-24T08:20:36.665Z,994.38
2023-02-24T08:21:36.630Z,994.37
2023-02-24T08:22:35.619Z,994.33
2023-02-24T08:23:35.620Z,994.33
2023-02-24T08:24:35.627Z,994.31
2023-02-24T08:25:36.295Z,994.32
2023-02-24T08:26:35.590Z,994.25
2023-02-24T08:27:35.572Z,994.31
2023-02-24T08:28:35.552Z,994.28
2023-02-24T08:29:35.561Z,994.21
2023-02-24T08:30:35.601Z,994.32
2023-02-24T08:31:36.730Z,994.24
2023-02-24T08:32:35.662Z,994.21
2023-02-24T08:33:35.501Z,994.17
2023-02-24T08:34:36.503Z,994.22
2023-02-24T08:35:35.474Z,994.14
2023-02-24T08:36:35.524Z,994.13
2023-02-24T08:37:35.457Z,994.14
2023-02-24T08:38:35.434Z,994.08
2023-02-24T08:39:35.429Z,994.04
2023-02-24T08:40:35.419Z,994.05
2023-02-24T08:41:36.416Z,994.04
2023-02-24T08:42:36.388Z,993.95
2023-02-24T08:43:35.413Z,993.97
2023-02-24T08:44:35.377Z,993.97
2023-02-24T08:45:36.373Z,993.93
2023-02-24T08:46:35.446Z,993.91
2023-02-24T08:47:35.352Z,993.94
2023-02-24T08:48:35.338Z,993.83
2023-02-24T08:49:35.325Z,993.78
2023-02-24T08:50:36.316Z,993.87
2023-02-24T08:51:35.494Z,993.84
2023-02-24T08:52:35.293Z,993.78
2023-02-24T08:53:36.283Z,993.79
2023-02-24T08:54:35.303Z,993.72
2023-02-24T08:55:35.262Z,993.69
2023-02-24T08:56:35.310Z,993.68
2023-02-24T08:57:35.244Z,993.58
2023-02-24T08:58:35.247Z,993.57
2023-02-24T08:59:35.242Z,993.60
2023-02-24T09:00:35.255Z,993.58
2023-02-24T09:01:35.184Z,993.59
2023-02-24T09:02:35.220Z,993.50
2023-02-24T09:03:35.181Z,993.50
2023-02-24T09:04:35.204Z,993.50
2023-02-24T09:05:36.140Z,993.51
2023-02-24T09:06:36.171Z,993.55
2023-02-24T09:07:35.149Z,993.48
2023-02-24T09:08:35.124Z,993.47
2023-02-24T09:09:35.103Z,993.49
2023-02-24T09:10:35.101Z,993.49
2023-02-24T09:11:35.077Z,993.41
2023-02-24T09:12:35.081Z,993.41
2023-02-24T09:13:35.076Z,993.42
2023-02-24T09:14:35.062Z,993.35
2023-02-24T09:15:35.069Z,993.40
2023-02-24T09:16:35.112Z,993.42
2023-02-24T09:17:35.020Z,993.40
2023-02-24T09:18:35.013Z,993.38
2023-02-24T09:19:35.136Z,993.31
2023-02-24T09:20:35.002Z,993.32
2023-02-24T09:21:34.973Z,993.25
2023-02-24T09:22:35.969Z,993.32
2023-02-24T09:23:35.957Z,993.28
2023-02-24T09:24:34.950Z,993.19
2023-02-24T09:25:35.938Z,993.24
2023-02-24T09:26:34.931Z,993.21
2023-02-24T09:27:35.939Z,993.17
2023-02-24T09:28:34.968Z,993.17
2023-02-24T09:29:34.899Z,993.18
2023-02-24T09:30:35.105Z,993.14
2023-02-24T09:31:36.776Z,993.10
2023-02-24T09:32:35.954Z,993.08
2023-02-24T09:33:34.872Z,993.05
2023-02-24T09:34:35.860Z,992.97
2023-02-24T09:35:34.834Z,992.93
2023-02-24T09:36:34.815Z,992.98
2023-02-24T09:37:34.805Z,992.98
2023-02-24T09:38:34.815Z,992.93
2023-02-24T09:39:34.787Z,992.93
2023-02-24T09:40:34.792Z,992.92
2023-02-24T09:41:35.094Z,992.90
2023-02-24T09:42:36.223Z,992.83
2023-02-24T09:43:35.800Z,992.81
2023-02-24T09:44:35.711Z,992.79
2023-02-24T09:45:34.904Z,992.75
2023-02-24T09:46:34.862Z,992.78
2023-02-24T09:47:34.777Z,992.76
2023-02-24T09:48:34.746Z,992.74
2023-02-24T09:49:34.704Z,992.76
2023-02-24T09:51:01.080Z,992.80
2023-02-24T09:51:35.659Z,992.78
2023-02-24T09:52:34.629Z,992.80
2023-02-24T09:53:34.648Z,992.65
2023-02-24T09:54:34.625Z,992.70
2023-02-24T09:55:34.645Z,992.66
2023-02-24T09:56:35.580Z,992.65
2023-02-24T09:57:35.617Z,992.68
2023-02-24T09:58:43.338Z,992.59
2023-02-24T09:59:35.583Z,992.61
2023-02-24T10:00:35.570Z,992.59
2023-02-24T10:01:34.602Z,992.62
2023-02-24T10:02:34.667Z,992.67
2023-02-24T10:03:34.548Z,992.52
2023-02-24T10:04:34.556Z,992.49
2023-02-24T10:05:35.484Z,992.52
2023-02-24T10:06:34.498Z,992.45
2023-02-24T10:07:34.483Z,992.43
2023-02-24T10:08:34.489Z,992.42
2023-02-24T10:09:35.529Z,992.41
2023-02-24T10:10:34.437Z,992.39
2023-02-24T10:11:34.434Z,992.42
2023-02-24T10:12:34.427Z,992.31
2023-02-24T10:13:34.400Z,992.30
2023-02-24T10:14:43.043Z,992.30
2023-02-24T10:15:35.433Z,992.35
2023-02-24T10:16:34.494Z,992.25
2023-02-24T10:17:34.366Z,992.22
2023-02-24T10:18:35.364Z,992.26
2023-02-24T10:19:34.369Z,992.17
2023-02-24T10:20:35.369Z,992.14
2023-02-24T10:21:35.387Z,992.08
2023-02-24T10:22:34.317Z,992.13
2023-02-24T10:23:34.316Z,992.11
2023-02-24T10:24:34.326Z,992.12
2023-02-24T10:25:34.286Z,992.08
2023-02-24T10:26:34.291Z,992.03
2023-02-24T10:27:34.263Z,992.05
2023-02-24T10:28:34.284Z,991.96
2023-02-24T10:29:34.244Z,991.98
2023-02-24T10:30:34.325Z,991.98
2023-02-24T10:31:35.363Z,991.90
2023-02-24T10:32:34.281Z,991.87
2023-02-24T10:33:34.185Z,991.94
2023-02-24T10:34:34.206Z,991.88
2023-02-24T10:35:35.169Z,991.77
2023-02-24T10:36:35.620Z,991.76
2023-02-24T10:37:34.160Z,991.79
2023-02-24T10:38:35.157Z,991.73
2023-02-24T10:39:34.156Z,991.75
2023-02-24T10:40:34.106Z,991.77
2023-02-24T10:41:34.110Z,991.73
2023-02-24T10:42:35.132Z,991.80
2023-02-24T10:43:34.130Z,991.71
2023-02-24T10:44:35.077Z,991.76
2023-02-24T10:45:35.053Z,991.78
2023-02-24T10:46:42.338Z,991.68
2023-02-24T10:47:35.093Z,991.67
2023-02-24T10:48:42.842Z,991.65
2023-02-24T10:49:35.055Z,991.59
2023-02-24T10:50:34.905Z,991.65
2023-02-24T10:51:34.033Z,991.60
2023-02-24T10:52:33.990Z,991.56
2023-02-24T10:53:34.015Z,991.53
2023-02-24T10:54:34.053Z,991.54
2023-02-24T10:55:34.004Z,991.51
2023-02-24T10:56:33.931Z,991.46
2023-02-24T10:57:33.920Z,991.55
2023-02-24T10:58:33.911Z,991.53
2023-02-24T10:59:33.982Z,991.46
2023-02-24T11:00:33.903Z,991.43
2023-02-24T11:01:33.942Z,991.46
2023-02-24T11:02:33.942Z,991.38
2023-02-24T11:03:33.900Z,991.37
2023-02-24T11:04:33.908Z,991.33
2023-02-24T11:05:33.860Z,991.44
2023-02-24T11:06:33.837Z,991.43
2023-02-24T11:07:34.824Z,991.34
2023-02-24T11:08:33.796Z,991.34
2023-02-24T11:09:33.828Z,991.34
2023-02-24T11:10:33.810Z,991.29
2023-02-24T11:11:33.793Z,991.34
2023-02-24T11:12:33.772Z,991.26
2023-02-24T11:13:33.760Z,991.36
2023-02-24T11:14:33.747Z,991.16
2023-02-24T11:15:33.783Z,991.16
2023-02-24T11:16:34.765Z,991.15
2023-02-24T11:17:33.723Z,991.19
2023-02-24T11:18:33.742Z,991.18
2023-02-24T11:19:33.711Z,991.11
2023-02-24T11:20:47.823Z,991.08
2023-02-24T11:21:34.669Z,991.08
2023-02-24T11:22:33.683Z,991.09
2023-02-24T11:23:33.650Z,991.06
2023-02-24T11:24:33.647Z,991.09
2023-02-24T11:25:34.513Z,991.02
2023-02-24T11:26:33.598Z,990.96
2023-02-24T11:27:33.633Z,991.03
2023-02-24T11:28:33.594Z,990.96
2023-02-24T11:29:33.576Z,990.93
2023-02-24T11:30:33.611Z,990.95
2023-02-24T11:31:34.740Z,990.95
2023-02-24T11:32:34.630Z,990.94
2023-02-24T11:33:33.528Z,990.89
2023-02-24T11:34:33.515Z,990.93
2023-02-24T11:35:33.536Z,990.92
2023-02-24T11:36:33.511Z,990.86
2023-02-24T11:37:33.519Z,990.85
2023-02-24T11:38:34.498Z,990.86
2023-02-24T11:39:33.460Z,990.84
2023-02-24T11:40:33.494Z,990.79
2023-02-24T11:41:33.445Z,990.81
2023-02-24T11:42:33.428Z,990.75
2023-02-24T11:43:33.480Z,990.77
2023-02-24T11:44:33.415Z,990.69
2023-02-24T11:45:33.413Z,990.70
2023-02-24T11:46:33.447Z,990.65
2023-02-24T11:47:34.365Z,990.62
2023-02-24T11:48:33.381Z,990.62
2023-02-24T11:49:33.355Z,990.55
2023-02-24T11:50:33.336Z,990.49
2023-02-24T11:51:34.355Z,990.68
2023-02-24T11:52:33.368Z,990.57
2023-02-24T11:53:34.305Z,990.55
2023-02-24T11:54:33.318Z,990.52
2023-02-24T11:55:33.301Z,990.58
2023-02-24T11:56:33.269Z,990.58
2023-02-24T11:57:33.297Z,990.48
2023-02-24T11:58:33.248Z,990.48
2023-02-24T11:59:34.266Z,990.45
2023-02-24T12:00:33.238Z,990.45
2023-02-24T12:01:33.270Z,990.37
2023-02-24T12:02:33.241Z,990.42
2023-02-24T12:03:33.238Z,990.42
2023-02-24T12:04:33.204Z,990.36
2023-02-24T12:05:33.232Z,990.34
2023-02-24T12:06:33.179Z,990.35
2023-02-24T12:07:33.166Z,990.32
2023-02-24T12:08:33.182Z,990.35
2023-02-24T12:09:33.143Z,990.34
2023-02-24T12:10:33.125Z,990.21
2023-02-24T12:11:33.141Z,990.27
2023-02-24T12:12:33.109Z,990.16
2023-02-24T12:13:33.097Z,990.18
2023-02-24T12:14:33.117Z,990.24
2023-02-24T12:15:33.099Z,990.16
2023-02-24T12:16:33.124Z,990.14
2023-02-24T12:17:33.070Z,990.14
2023-02-24T12:18:33.141Z,990.17
2023-02-24T12:19:33.046Z,990.20
2023-02-24T12:20:33.052Z,990.08
2023-02-24T12:21:33.009Z,990.12
2023-02-24T12:22:33.008Z,990.11
2023-02-24T12:23:33.031Z,990.15
2023-02-24T12:24:33.013Z,990.10
2023-02-24T12:25:32.965Z,990.07
2023-02-24T12:26:32.997Z,990.09
2023-02-24T12:27:32.934Z,990.05
2023-02-24T12:28:32.943Z,989.97